sensor_id;sensor_type;location;lat;lon;timestamp;temperature;humidity
2202;DHT22;1107;48.654;9.250;2023-07-20T00:02:04;20.10;99.90
2202;DHT22;1107;48.654;9.250;2023-07-20T00:04:33;20.10;99.90
2202;DHT22;1107;48.654;9.250;2023-07-20T00:07:00;20.10;99.90
2202;DHT22;1107;48.654;9.250;2023-07-20T00:09:29;20.10;99.90
2202;DHT22;1107;48.654;9.250;2023-07-20T00:11:56;20.10;99.90
2202;DHT22;1107;48.654;9.250;2023-07-20T00:14:25;20.10;99.90
2202;DHT22;1107;48.654;9.250;2023-07-20T00:16:52;20.00;99.90
2202;DHT22;1107;48.654;9.250;2023-07-20T00:19:22;20.00;99.90
2202;DHT22;1107;48.654;9.250;2023-07-20T00:21:49;20.00;99.90
2202;DHT22;1107;48.654;9.250;2023-07-20T00:24:30;19.90;99.90
2202;DHT22;1107;48.654;9.250;2023-07-20T00:26:58;20.00;99.90
2202;DHT22;1107;48.654;9.250;2023-07-20T00:29:26;20.00;99.90
2202;DHT22;1107;48.654;9.250;2023-07-20T00:31:53;19.90;99.90
2202;DHT22;1107;48.654;9.250;2023-07-20T00:34:20;19.90;99.90
2202;DHT22;1107;48.654;9.250;2023-07-20T00:36:47;19.80;99.90
2202;DHT22;1107;48.654;9.250;2023-07-20T00:39:15;19.70;99.90
2202;DHT22;1107;48.654;9.250;2023-07-20T00:41:43;19.60;99.90
2202;DHT22;1107;48.654;9.250;2023-07-20T00:44:10;19.50;99.90
2202;DHT22;1107;48.654;9.250;2023-07-20T00:46:37;19.50;99.90
2202;DHT22;1107;48.654;9.250;2023-07-20T00:49:04;19.40;99.90
2202;DHT22;1107;48.654;9.250;2023-07-20T00:51:32;19.30;99.90
2202;DHT22;1107;48.654;9.250;2023-07-20T00:53:59;19.20;99.90
2202;DHT22;1107;48.654;9.250;2023-07-20T00:56:26;19.20;99.90
2202;DHT22;1107;48.654;9.250;2023-07-20T00:58:55;19.10;99.90
2202;DHT22;1107;48.654;9.250;2023-07-20T01:01:22;19.10;99.90
2202;DHT22;1107;48.654;9.250;2023-07-20T01:03:49;19.10;99.90
2202;DHT22;1107;48.654;9.250;2023-07-20T01:06:24;19.10;99.90
2202;DHT22;1107;48.654;9.250;2023-07-20T01:09:00;19.10;99.90
2202;DHT22;1107;48.654;9.250;2023-07-20T01:11:37;19.10;99.90
2202;DHT22;1107;48.654;9.250;2023-07-20T01:14:06;19.10;99.90
2202;DHT22;1107;48.654;9.250;2023-07-20T01:16:33;19.10;99.90
2202;DHT22;1107;48.654;9.250;2023-07-20T01:19:00;19.10;99.90
2202;DHT22;1107;48.654;9.250;2023-07-20T01:21:33;19.10;99.90
2202;DHT22;1107;48.654;9.250;2023-07-20T01:24:41;19.00;99.90
2202;DHT22;1107;48.654;9.250;2023-07-20T01:30:29;18.90;99.90
2202;DHT22;1107;48.654;9.250;2023-07-20T01:33:02;18.80;99.90
2202;DHT22;1107;48.654;9.250;2023-07-20T01:35:30;18.80;99.90
2202;DHT22;1107;48.654;9.250;2023-07-20T01:37:58;18.80;99.90
2202;DHT22;1107;48.654;9.250;2023-07-20T01:40:26;18.80;99.90
2202;DHT22;1107;48.654;9.250;2023-07-20T01:42:53;18.80;99.90
2202;DHT22;1107;48.654;9.250;2023-07-20T01:45:21;18.80;99.90
2202;DHT22;1107;48.654;9.250;2023-07-20T01:47:47;18.70;99.90
2202;DHT22;1107;48.654;9.250;2023-07-20T01:50:16;18.70;99.90
2202;DHT22;1107;48.654;9.250;2023-07-20T01:52:43;18.70;99.90
2202;DHT22;1107;48.654;9.250;2023-07-20T01:55:10;18.70;99.90
2202;DHT22;1107;48.654;9.250;2023-07-20T01:57:37;18.70;99.90
2202;DHT22;1107;48.654;9.250;2023-07-20T02:00:05;18.70;99.90
2202;DHT22;1107;48.654;9.250;2023-07-20T02:02:32;18.70;99.90
2202;DHT22;1107;48.654;9.250;2023-07-20T02:04:59;18.60;99.90
2202;DHT22;1107;48.654;9.250;2023-07-20T02:07:27;18.60;99.90
2202;DHT22;1107;48.654;9.250;2023-07-20T02:09:54;18.50;99.90
2202;DHT22;1107;48.654;9.250;2023-07-20T02:12:21;18.40;99.90
2202;DHT22;1107;48.654;9.250;2023-07-20T02:14:48;18.30;99.90
2202;DHT22;1107;48.654;9.250;2023-07-20T02:17:15;18.30;99.90
2202;DHT22;1107;48.654;9.250;2023-07-20T02:19:42;18.20;99.90
2202;DHT22;1107;48.654;9.250;2023-07-20T02:22:09;18.10;99.90
2202;DHT22;1107;48.654;9.250;2023-07-20T02:24:37;18.10;99.90
2202;DHT22;1107;48.654;9.250;2023-07-20T02:27:05;18.10;99.90
2202;DHT22;1107;48.654;9.250;2023-07-20T02:29:32;18.10;99.90
2202;DHT22;1107;48.654;9.250;2023-07-20T02:31:59;18.10;99.90
2202;DHT22;1107;48.654;9.250;2023-07-20T02:34:26;18.10;99.90
2202;DHT22;1107;48.654;9.250;2023-07-20T02:36:53;18.10;99.90
2202;DHT22;1107;48.654;9.250;2023-07-20T02:39:21;18.10;99.90
2202;DHT22;1107;48.654;9.250;2023-07-20T02:41:49;18.00;99.90
2202;DHT22;1107;48.654;9.250;2023-07-20T02:44:16;18.00;99.90
2202;DHT22;1107;48.654;9.250;2023-07-20T02:46:43;17.90;99.90
2202;DHT22;1107;48.654;9.250;2023-07-20T02:49:10;17.90;99.90
2202;DHT22;1107;48.654;9.250;2023-07-20T02:51:37;17.80;1.00
2202;DHT22;1107;48.654;9.250;2023-07-20T02:54:04;17.70;1.00
2202;DHT22;1107;48.654;9.250;2023-07-20T02:56:31;17.70;1.00
2202;DHT22;1107;48.654;9.250;2023-07-20T02:59:00;17.70;1.00
2202;DHT22;1107;48.654;9.250;2023-07-20T03:01:27;17.70;1.00
2202;DHT22;1107;48.654;9.250;2023-07-20T03:03:54;17.60;1.00
2202;DHT22;1107;48.654;9.250;2023-07-20T03:06:21;17.60;1.00
2202;DHT22;1107;48.654;9.250;2023-07-20T03:08:48;17.50;1.00
2202;DHT22;1107;48.654;9.250;2023-07-20T03:11:18;17.50;1.00
2202;DHT22;1107;48.654;9.250;2023-07-20T03:13:46;17.50;1.00
2202;DHT22;1107;48.654;9.250;2023-07-20T03:16:18;17.40;1.00
2202;DHT22;1107;48.654;9.250;2023-07-20T03:18:46;17.40;1.00
2202;DHT22;1107;48.654;9.250;2023-07-20T03:21:13;17.30;1.00
2202;DHT22;1107;48.654;9.250;2023-07-20T03:23:40;17.30;1.00
2202;DHT22;1107;48.654;9.250;2023-07-20T03:26:08;17.20;1.00
2202;DHT22;1107;48.654;9.250;2023-07-20T03:28:35;17.20;1.00
2202;DHT22;1107;48.654;9.250;2023-07-20T03:31:02;17.20;1.00
2202;DHT22;1107;48.654;9.250;2023-07-20T03:33:31;17.10;1.00
2202;DHT22;1107;48.654;9.250;2023-07-20T03:35:59;17.10;1.00
2202;DHT22;1107;48.654;9.250;2023-07-20T03:38:27;17.00;1.00
2202;DHT22;1107;48.654;9.250;2023-07-20T03:40:55;17.00;1.00
2202;DHT22;1107;48.654;9.250;2023-07-20T03:43:23;17.00;1.00
2202;DHT22;1107;48.654;9.250;2023-07-20T03:45:51;17.00;1.00
2202;DHT22;1107;48.654;9.250;2023-07-20T03:48:19;16.90;1.00
2202;DHT22;1107;48.654;9.250;2023-07-20T03:50:49;16.90;1.00
2202;DHT22;1107;48.654;9.250;2023-07-20T03:53:17;16.90;1.00
2202;DHT22;1107;48.654;9.250;2023-07-20T03:55:44;16.90;1.00
2202;DHT22;1107;48.654;9.250;2023-07-20T03:58:12;16.90;1.00
2202;DHT22;1107;48.654;9.250;2023-07-20T04:00:39;16.90;1.00
2202;DHT22;1107;48.654;9.250;2023-07-20T04:03:06;17.00;1.00
2202;DHT22;1107;48.654;9.250;2023-07-20T04:05:33;17.00;1.00
2202;DHT22;1107;48.654;9.250;2023-07-20T04:08:01;16.90;1.00
2202;DHT22;1107;48.654;9.250;2023-07-20T04:10:28;17.00;1.00
2202;DHT22;1107;48.654;9.250;2023-07-20T04:12:55;17.10;1.00
2202;DHT22;1107;48.654;9.250;2023-07-20T04:15:22;17.00;1.00
2202;DHT22;1107;48.654;9.250;2023-07-20T04:17:49;17.10;1.00
2202;DHT22;1107;48.654;9.250;2023-07-20T04:20:16;17.20;1.00
2202;DHT22;1107;48.654;9.250;2023-07-20T04:22:43;17.30;1.00
2202;DHT22;1107;48.654;9.250;2023-07-20T04:25:12;17.40;1.00
2202;DHT22;1107;48.654;9.250;2023-07-20T04:27:38;17.50;1.00
2202;DHT22;1107;48.654;9.250;2023-07-20T04:30:07;17.60;1.00
2202;DHT22;1107;48.654;9.250;2023-07-20T04:32:34;17.70;1.00
2202;DHT22;1107;48.654;9.250;2023-07-20T04:35:05;17.80;1.00
2202;DHT22;1107;48.654;9.250;2023-07-20T04:37:32;17.90;1.00
2202;DHT22;1107;48.654;9.250;2023-07-20T04:39:59;18.10;1.00
2202;DHT22;1107;48.654;9.250;2023-07-20T04:42:28;18.10;1.00
2202;DHT22;1107;48.654;9.250;2023-07-20T04:44:54;18.40;1.00
2202;DHT22;1107;48.654;9.250;2023-07-20T04:47:21;18.40;1.00
2202;DHT22;1107;48.654;9.250;2023-07-20T04:49:48;18.40;1.00
2202;DHT22;1107;48.654;9.250;2023-07-20T04:52:15;18.40;1.00
2202;DHT22;1107;48.654;9.250;2023-07-20T04:54:42;18.40;1.00
2202;DHT22;1107;48.654;9.250;2023-07-20T04:57:10;18.70;1.00
2202;DHT22;1107;48.654;9.250;2023-07-20T04:59:39;18.90;1.00
2202;DHT22;1107;48.654;9.250;2023-07-20T05:02:06;19.00;1.00
2202;DHT22;1107;48.654;9.250;2023-07-20T05:04:33;19.20;1.00
2202;DHT22;1107;48.654;9.250;2023-07-20T05:07:00;19.20;1.00
2202;DHT22;1107;48.654;9.250;2023-07-20T05:09:27;19.30;1.00
2202;DHT22;1107;48.654;9.250;2023-07-20T05:11:54;19.30;1.00
2202;DHT22;1107;48.654;9.250;2023-07-20T05:14:20;19.20;1.00
2202;DHT22;1107;48.654;9.250;2023-07-20T05:16:49;19.10;1.00
2202;DHT22;1107;48.654;9.250;2023-07-20T05:19:16;18.90;1.00
2202;DHT22;1107;48.654;9.250;2023-07-20T05:21:42;18.90;1.00
2202;DHT22;1107;48.654;9.250;2023-07-20T05:24:09;19.00;1.00
2202;DHT22;1107;48.654;9.250;2023-07-20T05:26:36;19.10;1.00
2202;DHT22;1107;48.654;9.250;2023-07-20T05:29:03;19.20;1.00
2202;DHT22;1107;48.654;9.250;2023-07-20T05:31:30;19.20;1.00
2202;DHT22;1107;48.654;9.250;2023-07-20T05:33:59;19.20;1.00
2202;DHT22;1107;48.654;9.250;2023-07-20T05:36:26;19.20;1.00
2202;DHT22;1107;48.654;9.250;2023-07-20T05:38:53;19.20;1.00
2202;DHT22;1107;48.654;9.250;2023-07-20T05:41:20;19.20;1.00
2202;DHT22;1107;48.654;9.250;2023-07-20T05:43:48;19.20;1.00
2202;DHT22;1107;48.654;9.250;2023-07-20T05:46:15;19.20;1.00
2202;DHT22;1107;48.654;9.250;2023-07-20T05:48:42;19.20;1.00
2202;DHT22;1107;48.654;9.250;2023-07-20T05:51:10;19.20;1.00
2202;DHT22;1107;48.654;9.250;2023-07-20T05:53:37;19.20;1.00
2202;DHT22;1107;48.654;9.250;2023-07-20T05:56:04;19.40;1.00
2202;DHT22;1107;48.654;9.250;2023-07-20T05:58:31;19.50;1.00
2202;DHT22;1107;48.654;9.250;2023-07-20T06:00:58;19.70;1.00
2202;DHT22;1107;48.654;9.250;2023-07-20T06:03:25;19.80;1.00
2202;DHT22;1107;48.654;9.250;2023-07-20T06:05:57;19.80;1.00
2202;DHT22;1107;48.654;9.250;2023-07-20T06:08:25;19.80;99.90
2202;DHT22;1107;48.654;9.250;2023-07-20T06:10:52;19.80;99.90
2202;DHT22;1107;48.654;9.250;2023-07-20T06:13:19;19.70;99.90
2202;DHT22;1107;48.654;9.250;2023-07-20T06:15:46;19.80;99.90
2202;DHT22;1107;48.654;9.250;2023-07-20T06:18:14;19.80;99.90
2202;DHT22;1107;48.654;9.250;2023-07-20T06:20:41;19.80;99.90
2202;DHT22;1107;48.654;9.250;2023-07-20T06:23:07;20.00;99.90
2202;DHT22;1107;48.654;9.250;2023-07-20T06:25:36;19.90;99.90
2202;DHT22;1107;48.654;9.250;2023-07-20T06:28:03;20.00;99.90
2202;DHT22;1107;48.654;9.250;2023-07-20T06:30:30;20.00;99.90
2202;DHT22;1107;48.654;9.250;2023-07-20T06:33:00;20.20;99.90
2202;DHT22;1107;48.654;9.250;2023-07-20T06:35:27;20.40;99.90
2202;DHT22;1107;48.654;9.250;2023-07-20T06:37:54;20.60;99.90
2202;DHT22;1107;48.654;9.250;2023-07-20T06:40:21;20.80;99.90
2202;DHT22;1107;48.654;9.250;2023-07-20T06:42:49;21.00;99.90
2202;DHT22;1107;48.654;9.250;2023-07-20T06:45:16;21.00;99.90
2202;DHT22;1107;48.654;9.250;2023-07-20T06:47:43;21.00;99.90
2202;DHT22;1107;48.654;9.250;2023-07-20T06:50:10;21.10;99.90
2202;DHT22;1107;48.654;9.250;2023-07-20T06:52:37;20.90;99.90
2202;DHT22;1107;48.654;9.250;2023-07-20T06:55:06;20.90;99.90
2202;DHT22;1107;48.654;9.250;2023-07-20T06:57:33;20.90;99.90
2202;DHT22;1107;48.654;9.250;2023-07-20T07:00:02;20.90;99.90
2202;DHT22;1107;48.654;9.250;2023-07-20T07:02:32;20.90;99.90
2202;DHT22;1107;48.654;9.250;2023-07-20T07:04:59;20.80;99.90
2202;DHT22;1107;48.654;9.250;2023-07-20T07:07:26;21.00;99.90
2202;DHT22;1107;48.654;9.250;2023-07-20T07:09:53;21.30;99.90
2202;DHT22;1107;48.654;9.250;2023-07-20T07:12:20;21.50;99.90
2202;DHT22;1107;48.654;9.250;2023-07-20T07:14:47;21.40;99.90
2202;DHT22;1107;48.654;9.250;2023-07-20T07:17:15;21.60;99.90
2202;DHT22;1107;48.654;9.250;2023-07-20T07:19:42;21.70;99.90
2202;DHT22;1107;48.654;9.250;2023-07-20T07:22:10;22.20;99.90
2202;DHT22;1107;48.654;9.250;2023-07-20T07:24:37;22.90;99.90
2202;DHT22;1107;48.654;9.250;2023-07-20T07:27:06;23.20;99.90
2202;DHT22;1107;48.654;9.250;2023-07-20T07:29:33;23.20;99.90
2202;DHT22;1107;48.654;9.250;2023-07-20T07:32:00;22.80;99.90
2202;DHT22;1107;48.654;9.250;2023-07-20T07:34:28;22.90;99.90
2202;DHT22;1107;48.654;9.250;2023-07-20T07:36:55;23.10;99.90
2202;DHT22;1107;48.654;9.250;2023-07-20T07:39:22;23.80;99.90
2202;DHT22;1107;48.654;9.250;2023-07-20T07:41:49;24.30;99.90
2202;DHT22;1107;48.654;9.250;2023-07-20T07:44:17;24.80;99.90
2202;DHT22;1107;48.654;9.250;2023-07-20T07:46:44;25.10;99.90
2202;DHT22;1107;48.654;9.250;2023-07-20T07:49:11;26.10;99.90
2202;DHT22;1107;48.654;9.250;2023-07-20T07:51:39;25.80;88.90
2202;DHT22;1107;48.654;9.250;2023-07-20T07:54:06;25.30;86.50
2202;DHT22;1107;48.654;9.250;2023-07-20T07:56:33;25.30;91.30
2202;DHT22;1107;48.654;9.250;2023-07-20T07:59:01;25.80;81.20
2202;DHT22;1107;48.654;9.250;2023-07-20T08:01:28;25.40;71.90
2202;DHT22;1107;48.654;9.250;2023-07-20T08:03:55;24.80;66.90
2202;DHT22;1107;48.654;9.250;2023-07-20T08:06:22;24.50;69.70
2202;DHT22;1107;48.654;9.250;2023-07-20T08:08:51;24.80;77.50
2202;DHT22;1107;48.654;9.250;2023-07-20T08:11:18;24.60;68.00
2202;DHT22;1107;48.654;9.250;2023-07-20T08:13:45;24.40;73.90
2202;DHT22;1107;48.654;9.250;2023-07-20T08:16:12;25.10;80.60
2202;DHT22;1107;48.654;9.250;2023-07-20T08:18:39;26.30;71.60
2202;DHT22;1107;48.654;9.250;2023-07-20T08:21:06;27.10;55.40
2202;DHT22;1107;48.654;9.250;2023-07-20T08:23:33;26.40;40.00
2202;DHT22;1107;48.654;9.250;2023-07-20T08:26:01;25.40;38.20
2202;DHT22;1107;48.654;9.250;2023-07-20T08:28:28;24.60;46.10
2202;DHT22;1107;48.654;9.250;2023-07-20T08:30:55;24.20;56.00
2202;DHT22;1107;48.654;9.250;2023-07-20T08:33:22;24.90;70.50
2202;DHT22;1107;48.654;9.250;2023-07-20T08:35:49;26.20;62.60
2202;DHT22;1107;48.654;9.250;2023-07-20T08:38:16;26.70;42.40
2202;DHT22;1107;48.654;9.250;2023-07-20T08:40:45;27.20;34.70
2202;DHT22;1107;48.654;9.250;2023-07-20T08:43:14;27.10;25.10
2202;DHT22;1107;48.654;9.250;2023-07-20T08:45:45;27.50;23.00
2202;DHT22;1107;48.654;9.250;2023-07-20T08:48:12;27.50;20.00
2202;DHT22;1107;48.654;9.250;2023-07-20T08:50:39;26.60;16.50
2202;DHT22;1107;48.654;9.250;2023-07-20T08:53:07;25.60;14.70
2202;DHT22;1107;48.654;9.250;2023-07-20T08:55:35;25.60;16.60
2202;DHT22;1107;48.654;9.250;2023-07-20T08:58:03;25.70;14.30
2202;DHT22;1107;48.654;9.250;2023-07-20T09:00:35;26.20;29.80
2202;DHT22;1107;48.654;9.250;2023-07-20T09:03:03;27.50;19.10
2202;DHT22;1107;48.654;9.250;2023-07-20T09:05:30;26.80;11.20
2202;DHT22;1107;48.654;9.250;2023-07-20T09:07:57;26.60;12.70
2202;DHT22;1107;48.654;9.250;2023-07-20T09:10:24;26.90;12.90
2202;DHT22;1107;48.654;9.250;2023-07-20T09:12:51;26.10;6.90
2202;DHT22;1107;48.654;9.250;2023-07-20T09:15:19;25.10;5.60
2202;DHT22;1107;48.654;9.250;2023-07-20T09:17:48;25.50;11.60
2202;DHT22;1107;48.654;9.250;2023-07-20T09:20:16;26.30;12.70
2202;DHT22;1107;48.654;9.250;2023-07-20T09:22:44;27.00;11.60
2202;DHT22;1107;48.654;9.250;2023-07-20T09:25:12;27.60;11.30
2202;DHT22;1107;48.654;9.250;2023-07-20T09:27:41;27.40;7.10
2202;DHT22;1107;48.654;9.250;2023-07-20T09:30:09;27.60;6.90
2202;DHT22;1107;48.654;9.250;2023-07-20T09:32:38;28.60;10.10
2202;DHT22;1107;48.654;9.250;2023-07-20T09:35:12;29.70;5.80
2202;DHT22;1107;48.654;9.250;2023-07-20T09:37:42;28.90;1.00
2202;DHT22;1107;48.654;9.250;2023-07-20T09:40:15;28.70;1.00
2202;DHT22;1107;48.654;9.250;2023-07-20T09:42:42;29.40;1.00
2202;DHT22;1107;48.654;9.250;2023-07-20T09:45:09;28.50;1.00
2202;DHT22;1107;48.654;9.250;2023-07-20T09:47:37;28.90;1.00
2202;DHT22;1107;48.654;9.250;2023-07-20T09:50:07;28.60;1.00
2202;DHT22;1107;48.654;9.250;2023-07-20T09:52:38;29.10;1.00
2202;DHT22;1107;48.654;9.250;2023-07-20T09:55:07;29.10;1.00
2202;DHT22;1107;48.654;9.250;2023-07-20T09:57:35;29.90;1.00
2202;DHT22;1107;48.654;9.250;2023-07-20T10:00:03;30.20;1.00
2202;DHT22;1107;48.654;9.250;2023-07-20T10:02:42;30.50;1.00
2202;DHT22;1107;48.654;9.250;2023-07-20T10:05:11;29.50;1.00
2202;DHT22;1107;48.654;9.250;2023-07-20T10:07:46;29.60;1.00
2202;DHT22;1107;48.654;9.250;2023-07-20T10:10:15;28.90;1.00
2202;DHT22;1107;48.654;9.250;2023-07-20T10:12:45;28.80;1.00
2202;DHT22;1107;48.654;9.250;2023-07-20T10:15:17;27.80;1.00
2202;DHT22;1107;48.654;9.250;2023-07-20T10:17:54;26.80;1.00
2202;DHT22;1107;48.654;9.250;2023-07-20T10:20:25;26.80;1.00
2202;DHT22;1107;48.654;9.250;2023-07-20T10:22:53;27.70;1.00
2202;DHT22;1107;48.654;9.250;2023-07-20T10:25:22;28.30;1.00
2202;DHT22;1107;48.654;9.250;2023-07-20T10:27:50;29.00;1.00
2202;DHT22;1107;48.654;9.250;2023-07-20T10:30:17;29.30;1.00
2202;DHT22;1107;48.654;9.250;2023-07-20T10:32:45;29.70;1.00
2202;DHT22;1107;48.654;9.250;2023-07-20T10:35:14;29.60;1.00
2202;DHT22;1107;48.654;9.250;2023-07-20T10:37:48;29.80;1.00
2202;DHT22;1107;48.654;9.250;2023-07-20T10:40:27;29.90;1.00
2202;DHT22;1107;48.654;9.250;2023-07-20T10:42:57;28.30;1.00
2202;DHT22;1107;48.654;9.250;2023-07-20T10:45:42;28.80;1.00
2202;DHT22;1107;48.654;9.250;2023-07-20T10:48:15;28.00;1.00
2202;DHT22;1107;48.654;9.250;2023-07-20T10:50:43;27.60;1.00
2202;DHT22;1107;48.654;9.250;2023-07-20T10:53:13;27.60;1.00
2202;DHT22;1107;48.654;9.250;2023-07-20T10:55:41;27.80;1.00
2202;DHT22;1107;48.654;9.250;2023-07-20T10:58:10;28.30;1.00
2202;DHT22;1107;48.654;9.250;2023-07-20T11:00:38;27.80;1.00
2202;DHT22;1107;48.654;9.250;2023-07-20T11:03:27;27.30;1.00
2202;DHT22;1107;48.654;9.250;2023-07-20T11:05:56;27.00;1.00
2202;DHT22;1107;48.654;9.250;2023-07-20T11:11:27;26.80;1.00
2202;DHT22;1107;48.654;9.250;2023-07-20T11:13:56;28.80;1.00
2202;DHT22;1107;48.654;9.250;2023-07-20T11:16:37;29.40;1.00
2202;DHT22;1107;48.654;9.250;2023-07-20T11:19:10;28.90;1.00
2202;DHT22;1107;48.654;9.250;2023-07-20T11:21:43;28.20;1.00
2202;DHT22;1107;48.654;9.250;2023-07-20T11:24:10;28.50;1.00
2202;DHT22;1107;48.654;9.250;2023-07-20T11:26:47;28.30;1.00
2202;DHT22;1107;48.654;9.250;2023-07-20T11:29:16;27.90;1.00
2202;DHT22;1107;48.654;9.250;2023-07-20T11:31:44;28.80;1.00
2202;DHT22;1107;48.654;9.250;2023-07-20T11:34:14;29.40;1.00
2202;DHT22;1107;48.654;9.250;2023-07-20T11:36:44;30.00;1.00
2202;DHT22;1107;48.654;9.250;2023-07-20T11:39:12;30.50;1.00
2202;DHT22;1107;48.654;9.250;2023-07-20T11:41:46;30.90;1.00
2202;DHT22;1107;48.654;9.250;2023-07-20T11:44:13;31.30;1.00
2202;DHT22;1107;48.654;9.250;2023-07-20T11:46:41;31.60;1.00
2202;DHT22;1107;48.654;9.250;2023-07-20T11:49:08;31.90;1.00
2202;DHT22;1107;48.654;9.250;2023-07-20T11:51:36;32.00;1.00
2202;DHT22;1107;48.654;9.250;2023-07-20T11:54:07;30.80;1.00
2202;DHT22;1107;48.654;9.250;2023-07-20T11:56:34;30.20;1.00
2202;DHT22;1107;48.654;9.250;2023-07-20T11:59:02;29.40;1.00
2202;DHT22;1107;48.654;9.250;2023-07-20T12:01:30;28.80;1.00
2202;DHT22;1107;48.654;9.250;2023-07-20T12:03:59;29.00;1.00
2202;DHT22;1107;48.654;9.250;2023-07-20T12:06:29;29.20;1.00
2202;DHT22;1107;48.654;9.250;2023-07-20T12:08:57;29.80;1.00
2202;DHT22;1107;48.654;9.250;2023-07-20T12:11:32;29.30;1.00
2202;DHT22;1107;48.654;9.250;2023-07-20T12:13:59;28.90;1.00
2202;DHT22;1107;48.654;9.250;2023-07-20T12:16:29;29.30;1.00
2202;DHT22;1107;48.654;9.250;2023-07-20T12:19:00;30.20;1.00
2202;DHT22;1107;48.654;9.250;2023-07-20T12:21:27;31.00;1.00
2202;DHT22;1107;48.654;9.250;2023-07-20T12:23:56;31.50;1.00
2202;DHT22;1107;48.654;9.250;2023-07-20T12:26:23;31.90;1.00
2202;DHT22;1107;48.654;9.250;2023-07-20T12:28:51;32.00;1.00
2202;DHT22;1107;48.654;9.250;2023-07-20T12:31:18;31.90;1.00
2202;DHT22;1107;48.654;9.250;2023-07-20T12:33:48;31.90;1.00
2202;DHT22;1107;48.654;9.250;2023-07-20T12:36:15;31.90;1.00
2202;DHT22;1107;48.654;9.250;2023-07-20T12:38:42;32.10;1.00
2202;DHT22;1107;48.654;9.250;2023-07-20T12:41:11;31.90;1.00
2202;DHT22;1107;48.654;9.250;2023-07-20T12:43:39;31.20;1.00
2202;DHT22;1107;48.654;9.250;2023-07-20T12:46:06;30.60;1.00
2202;DHT22;1107;48.654;9.250;2023-07-20T12:48:33;30.30;1.00
2202;DHT22;1107;48.654;9.250;2023-07-20T12:51:03;29.80;1.00
2202;DHT22;1107;48.654;9.250;2023-07-20T12:53:31;29.70;1.00
2202;DHT22;1107;48.654;9.250;2023-07-20T12:55:58;29.90;1.00
2202;DHT22;1107;48.654;9.250;2023-07-20T12:58:25;30.50;1.00
2202;DHT22;1107;48.654;9.250;2023-07-20T13:00:53;30.90;1.00
2202;DHT22;1107;48.654;9.250;2023-07-20T13:03:20;30.70;1.00
2202;DHT22;1107;48.654;9.250;2023-07-20T13:05:47;31.00;1.00
2202;DHT22;1107;48.654;9.250;2023-07-20T13:08:16;31.30;1.00
2202;DHT22;1107;48.654;9.250;2023-07-20T13:10:43;31.40;1.00
2202;DHT22;1107;48.654;9.250;2023-07-20T13:13:10;31.30;1.00
2202;DHT22;1107;48.654;9.250;2023-07-20T13:15:42;31.40;1.00
2202;DHT22;1107;48.654;9.250;2023-07-20T13:18:09;31.80;1.00
2202;DHT22;1107;48.654;9.250;2023-07-20T13:20:36;32.20;1.00
2202;DHT22;1107;48.654;9.250;2023-07-20T13:23:03;31.60;1.00
2202;DHT22;1107;48.654;9.250;2023-07-20T13:25:32;31.30;1.00
2202;DHT22;1107;48.654;9.250;2023-07-20T13:27:59;30.50;1.00
2202;DHT22;1107;48.654;9.250;2023-07-20T13:30:26;30.30;1.00
2202;DHT22;1107;48.654;9.250;2023-07-20T13:32:53;29.70;1.00
2202;DHT22;1107;48.654;9.250;2023-07-20T13:35:20;29.40;1.00
2202;DHT22;1107;48.654;9.250;2023-07-20T13:37:46;29.90;1.00
2202;DHT22;1107;48.654;9.250;2023-07-20T13:40:15;30.60;1.00
2202;DHT22;1107;48.654;9.250;2023-07-20T13:42:45;31.00;1.00
2202;DHT22;1107;48.654;9.250;2023-07-20T13:45:12;31.20;1.00
2202;DHT22;1107;48.654;9.250;2023-07-20T13:47:39;30.70;1.00
2202;DHT22;1107;48.654;9.250;2023-07-20T13:50:07;29.90;1.00
2202;DHT22;1107;48.654;9.250;2023-07-20T13:52:34;29.30;1.00
2202;DHT22;1107;48.654;9.250;2023-07-20T13:55:02;28.90;1.00
2202;DHT22;1107;48.654;9.250;2023-07-20T13:57:30;29.20;1.00
2202;DHT22;1107;48.654;9.250;2023-07-20T13:59:58;28.90;1.00
2202;DHT22;1107;48.654;9.250;2023-07-20T14:02:26;29.10;1.00
2202;DHT22;1107;48.654;9.250;2023-07-20T14:04:54;29.70;1.00
2202;DHT22;1107;48.654;9.250;2023-07-20T14:07:22;30.10;1.00
2202;DHT22;1107;48.654;9.250;2023-07-20T14:09:49;30.50;1.00
2202;DHT22;1107;48.654;9.250;2023-07-20T14:12:16;30.70;1.00
2202;DHT22;1107;48.654;9.250;2023-07-20T14:14:43;30.90;1.00
2202;DHT22;1107;48.654;9.250;2023-07-20T14:17:11;31.10;1.00
2202;DHT22;1107;48.654;9.250;2023-07-20T14:19:38;30.90;1.00
2202;DHT22;1107;48.654;9.250;2023-07-20T14:22:05;30.80;1.00
2202;DHT22;1107;48.654;9.250;2023-07-20T14:24:32;30.60;1.00
2202;DHT22;1107;48.654;9.250;2023-07-20T14:26:59;30.50;1.00
2202;DHT22;1107;48.654;9.250;2023-07-20T14:29:27;30.30;1.00
2202;DHT22;1107;48.654;9.250;2023-07-20T14:31:57;30.40;1.00
2202;DHT22;1107;48.654;9.250;2023-07-20T14:34:25;30.30;1.00
2202;DHT22;1107;48.654;9.250;2023-07-20T14:36:52;30.20;1.00
2202;DHT22;1107;48.654;9.250;2023-07-20T14:39:19;30.20;1.00
2202;DHT22;1107;48.654;9.250;2023-07-20T14:41:46;30.30;1.00
2202;DHT22;1107;48.654;9.250;2023-07-20T14:44:13;30.20;1.00
2202;DHT22;1107;48.654;9.250;2023-07-20T14:46:41;30.10;1.00
2202;DHT22;1107;48.654;9.250;2023-07-20T14:49:08;29.90;1.00
2202;DHT22;1107;48.654;9.250;2023-07-20T14:51:37;29.80;1.00
2202;DHT22;1107;48.654;9.250;2023-07-20T14:54:09;29.80;1.00
2202;DHT22;1107;48.654;9.250;2023-07-20T14:56:38;29.80;1.00
2202;DHT22;1107;48.654;9.250;2023-07-20T14:59:05;29.50;1.00
2202;DHT22;1107;48.654;9.250;2023-07-20T15:01:32;29.30;1.00
2202;DHT22;1107;48.654;9.250;2023-07-20T15:03:59;29.10;1.00
2202;DHT22;1107;48.654;9.250;2023-07-20T15:06:26;28.80;1.00
2202;DHT22;1107;48.654;9.250;2023-07-20T15:08:57;28.40;1.00
2202;DHT22;1107;48.654;9.250;2023-07-20T15:11:24;28.70;1.00
2202;DHT22;1107;48.654;9.250;2023-07-20T15:13:51;28.90;1.00
2202;DHT22;1107;48.654;9.250;2023-07-20T15:16:18;29.10;1.00
2202;DHT22;1107;48.654;9.250;2023-07-20T15:18:44;29.00;1.00
2202;DHT22;1107;48.654;9.250;2023-07-20T15:21:11;28.90;1.00
2202;DHT22;1107;48.654;9.250;2023-07-20T15:23:38;28.60;1.00
2202;DHT22;1107;48.654;9.250;2023-07-20T15:26:07;28.40;1.00
2202;DHT22;1107;48.654;9.250;2023-07-20T15:28:34;28.30;1.00
2202;DHT22;1107;48.654;9.250;2023-07-20T15:31:01;28.30;1.00
2202;DHT22;1107;48.654;9.250;2023-07-20T15:33:28;28.10;1.00
2202;DHT22;1107;48.654;9.250;2023-07-20T15:35:55;28.00;1.00
2202;DHT22;1107;48.654;9.250;2023-07-20T15:38:22;27.90;1.00
2202;DHT22;1107;48.654;9.250;2023-07-20T15:40:49;27.80;1.00
2202;DHT22;1107;48.654;9.250;2023-07-20T15:43:18;27.70;1.00
2202;DHT22;1107;48.654;9.250;2023-07-20T15:45:47;27.80;1.00
2202;DHT22;1107;48.654;9.250;2023-07-20T15:48:14;28.00;1.00
2202;DHT22;1107;48.654;9.250;2023-07-20T15:50:41;28.10;1.00
2202;DHT22;1107;48.654;9.250;2023-07-20T15:53:08;28.00;1.00
2202;DHT22;1107;48.654;9.250;2023-07-20T15:55:35;27.80;1.00
2202;DHT22;1107;48.654;9.250;2023-07-20T15:58:01;27.50;1.00
2202;DHT22;1107;48.654;9.250;2023-07-20T16:00:30;27.60;1.00
2202;DHT22;1107;48.654;9.250;2023-07-20T16:02:57;27.70;1.00
2202;DHT22;1107;48.654;9.250;2023-07-20T16:05:24;27.70;1.00
2202;DHT22;1107;48.654;9.250;2023-07-20T16:07:51;27.50;1.00
2202;DHT22;1107;48.654;9.250;2023-07-20T16:10:18;27.50;1.00
2202;DHT22;1107;48.654;9.250;2023-07-20T16:12:45;27.50;1.00
2202;DHT22;1107;48.654;9.250;2023-07-20T16:15:12;27.40;1.00
2202;DHT22;1107;48.654;9.250;2023-07-20T16:17:40;27.40;1.00
2202;DHT22;1107;48.654;9.250;2023-07-20T16:20:08;27.40;1.00
2202;DHT22;1107;48.654;9.250;2023-07-20T16:22:36;27.30;1.00
2202;DHT22;1107;48.654;9.250;2023-07-20T16:25:03;27.20;1.00